BFIBOEING FIELD/KING COUNTY INTL
METARs for nearby airports:
N 0 21' KBFI 271153Z 18005KT 10SM OVC018 13/11 A3005
SE 4 32' KRNT 271153Z 10005KT 10SM OVC020 13/10 A3005
S 4 432' KSEA 271201Z 18005KT 10SM OVC016 12/09 A3005
W 18 443' KPWT 271156Z 19004KT 10SM OVC008 11/09 A3004
SW 19 294' KTIW 271153Z 17003KT 10SM OVC016 12/09 A3006
N 22 607' KPAE 271153Z 17007KT 10SM BKN011 OVC031 12/10 A3004
S 24 322' KTCM 271158Z 19007KT 10SM OVC018 12/11 A3005
S 25 537' KPLU 271155Z 26003KT 10SM OVC018 12/10 A3006
S 29 305' KGRF 271058Z 15004KT 10SM OVC019 13/11 A3004
N 38 141' KAWO 271156Z 17004KT 10SM FEW030 OVC046 13/11 A3004
SW 41 207' KOLM 271154Z 20005KT 10SM OVC020 12/09 A3005
N 51 47' KNUW 271156Z 00000KT 10SM FEW012 SCT033 SCT050 BKN230 12/08 A3007
N 56 145' KBVS 271155Z 00000KT 8SM OVC032 10/09 A3004
NW 57 13' KNOW 271155Z 23005KT 10SM CLR 11/09 A3003
SW 58 177' KCLS 271155Z 00000KT 10SM BKN028 OVC036 11/09 A3006
NW 59 291' KCLM 271153Z 25003KT 10SM CLR 09/09 A3002
NW 66 112' KFHR 271153Z 00000KT 7SM CLR 09/09 A3003
SW 74 17' KHQM 271153Z 27007KT 9SM OVC022 14/10 A3004
N 74 34' KORS 271155Z 18008KT 10SM CLR 12/10 A3002
N 76 170' KBLI 271153Z 17010KT 10SM CLR 13/11 A3001
E 78 1763' KELN 271153Z 32016G24KT 10SM CLR 15/07 A2988
NW 80 64' CYYJ 271100Z 13004KT 30SM SCT240 11/10 A3000
E 85 1248' KEAT 271155Z 29010KT 10SM CLR 18/04 A2985
S 88 20' KKLS 271156Z VRB03KT 10SM OVC028 14/08 A3007
SE 92 1098' KYKM 271153Z 32006KT 10SM CLR 20/03 A2986
W 94 193' KUIL 271200Z 00000KT 10SM OVC014 12/10 A3002
TAFs for nearby airports:
N 0 21' KBFI TAF KBFI 271120Z 2712/2812 18008KT P6SM OVC018
  FM271700 20006KT P6SM BKN025
  FM272000 24006KT P6SM SCT040 SCT200
  FM280000 32006KT P6SM SCT200
  FM280900 VRB04KT P6SM SCT020
  FM281100 16006KT P6SM BKN025
S 4 432' KSEA TAF KSEA 271120Z 2712/2818 18008KT P6SM OVC015
  FM271700 20008KT P6SM BKN025
  FM272000 24006KT P6SM SCT040 SCT200
  FM280000 32006KT P6SM SCT200
  FM280900 VRB04KT P6SM SCT020
  FM281100 18006KT P6SM BKN020
N 22 607' KPAE TAF KPAE 271120Z 2712/2812 15007KT P6SM SCT015 BKN035
  TEMPO 2712/2715 BKN015 OVC030
  FM271500 18008KT P6SM OVC015
  FM271800 20008KT P6SM BKN025
  FM272000 26006KT P6SM SCT040 SCT200
  FM280000 32006KT P6SM SCT200
  FM281100 18006KT P6SM BKN020
S 24 322' KTCM TAF
  AMD KTCM 270947Z 2709/2811 23009KT 9999 BKN018 BKN250 QNH2999INS
  BECMG 2717/2718 23009KT 9999 SCT020 SCT250 QNH3000INS
  BECMG 2721/2722 29006KT 9999 FEW020 SCT200 QNH2997INS
  BECMG 2808/2809 27006KT 9999 BKN010 BKN200 QNH2999INS TX19/2800Z TN09/2712Z
S 29 305' KGRF TAF TAF KGRF 270508Z 2705/2811 23009KT 9999 SCT030 BKN150 QNH2989INS
  BECMG 2707/2708 23009KT 9999 BKN020 BKN250 QNH2999INS
  BECMG 2717/2718 23009KT 9999 SCT020 SCT250 QNH3000INS
  BECMG 2721/2722 29006KT 9999 FEW020 SCT200 QNH2997INS
  BECMG 2808/2809 27006KT 9999 BKN010 BKN200 QNH2999INS TX19/2800Z TN10/2712Z
SW 41 207' KOLM TAF KOLM 271120Z 2712/2812 21008KT P6SM OVC022
  FM272000 24006KT P6SM SCT040 SCT200
  FM280000 24008KT P6SM SCT200
  FM280900 VRB04KT P6SM SCT020
  FM281100 21006KT P6SM BKN020
N 51 47' KNUW TAF TAF KNUW 2707/2807 VRB02KT 9999 FEW050 FEW140 SCT250 QNH2995INS
  FM271300 22008KT 9000 BR BKN015 BKN050 BKN250 QNH2990INS
  FM271800 25008KT 9999 SCT020 SCT050 BKN250 QNH2998INS T13/2712Z T20/2723Z FS30064
NW 59 291' KCLM TAF KCLM 271120Z 2712/2812 23007KT P6SM SCT020
  TEMPO 2712/2715 BKN020
  FM271500 23005KT P6SM BKN020
  FM272000 28008KT P6SM SCT040 SCT200
  FM280000 28012KT P6SM SCT200
  FM281000 28008KT P6SM SCT020
SW 74 17' KHQM TAF KHQM 271120Z 2712/2812 25008KT P6SM OVC022
  FM271800 25012KT P6SM OVC025
  TEMPO 2722/2802 SCT025
N 76 170' KBLI TAF KBLI 271120Z 2712/2812 18010KT P6SM SCT020
  TEMPO 2712/2715 BKN020
  FM271500 18008KT P6SM BKN020
  FM272000 24006KT P6SM SCT040 SCT200
  FM280000 24006KT P6SM SCT200
  FM281000 18008KT P6SM SCT020
E 85 1248' KEAT TAF KEAT 271138Z 2712/2812 29015KT P6SM SCT250
  FM271800 30007KT P6SM FEW200
  FM280100 30014G21KT P6SM FEW200
  FM280800 30012KT P6SM SKC
SE 92 1098' KYKM KYKM 271131Z 2712/2812 28007KT P6SM FEW100
  FM271800 30008KT P6SM SKC
  FM280200 30010KT P6SM SKC
Area forecast:
000
FAUS46 KKCI 271045
FA6W  
SFOC FA 271045
SYNOPSIS AND VFR CLDS/WX
SYNOPSIS VALID UNTIL 280500
CLDS/WX VALID UNTIL 272300...OTLK VALID 272300-280500
WA OR CA AND CSTL WTRS
.
SEE AIRMET SIERRA FOR IFR CONDS AND MTN OBSCN.
TS IMPLY SEV OR GTR TURB SEV ICE LLWS AND IFR CONDS.
NON MSL HGTS DENOTED BY AGL OR CIG.
.
SYNOPSIS...ALF..RDG ERN MT TO ERN NM. TROF NRN ID TO NERN NV. 21Z
TROF ERN MT TO SERN WY. WK SHRTWV NWRN OR. 05Z WK TROF NERN WA TO
NRN CA. SFC..WRMFNT ERN MT TO NERN CO. CDFNT CNTRL MT-SERN
ID-NWRN NV. 00Z CDFNT SERN WY TO SRN NV. HI PRES ELSW. 05Z CDFNT
NERN CO-SRN UT-SRN NV.
.
WA CASCDS WWD
CSTL SXNS...OVC015 TOP 040. 18Z OVC025. OTLK...MVFR CIG.
PUGET SOUND-INTR VLY...OVC015 TOP 030. 18Z BKN020. 22Z SCT030.
OTLK...VFR.
CASCDS...SCT CI. OTLK...VFR.
.
WA E OF CASCDS
NERN MTNS...BKN CI. 16Z SCT CI. OTLK...VFR.
RMNDR WA...BKN160 TOP FL200. WDLY SCT -SHRA/ISOL TSRA. CB TOP
FL270. 13Z SCT CI. OTLK...VFR.
.
OR CASCDS WWD
CSTL SXNS...OVC020 TOP 040. BECMG 1820 SCT040 SCT CI. OTLK...VFR.
WILLAMETTE VLY...OVC015 TOP 040. VIS 3-5SM BR. 20Z SCT030.
OTLK...VFR.
SWRN INTR...SKC. OTLK...VFR.
CASCDS...SKC OCNL SCT CI. OTLK...VFR.
.
OR E OF CASCDS
CNTRL...SKC OCNL SCT CI. OTLK...VFR.
NERN...BKN150 TOP FL180. ISOL -SHRA/TSRA. CB TOP FL270. 12Z SCT
CI. OTLK...VFR SHRA TSRA.
SERN...SCT CI. 12Z SKC. OTLK...VFR.
.
NRN CA...STS-SAC-TVL LN NWD
CSTL SXNS...
FOT NWD...OVC015 TOP 040. VIS 3-5SM BR. 20Z BKN020. OTLK...MVFR
CIG.
S FOT...BKN015 TOP 040. BECMG 1618 SKC. OTLK...VFR.
RMNDR...SKC. OTLK...VFR.
.
CNTRL CA
CSTL SXNS...BKN015 TOP 020. BECMG 1719 SCT020. 21Z SKC.
OTLK...VFR.
RMNDR...SKC. OTLK...VFR.
.
SRN CA..VBG-NID-60NNW BIH LN SWD
MOJAVE...SKC. WND W G25KT. OTLK...VFR.
RMNDR...SKC. OTLK...VFR.
.
CSTL WTRS
WA/OR...SKC OCNL SCT CI. OTLK...VFR.
CA...
NRN-CNTRL...BKN015 TOP 030. OTLK...MVFR CIG.
SRN...
OFF SHORE...SKC. BECMG 1315 BKN010 TOP 020. OTLK...IFR CIG.
NR SHORE...SKC. OTLK...VFR.
....

Shortcut to this page: http://wxbay.com.

Data may contain errors.